Time;durP1;ratioP1;P1;durP2;ratioP2;P2;SDS_P1;SDS_P2;PMS_P1;PMS_P2;Temp;Humidity;BMP_temperature;BMP_pressure;BME280_temperature;BME280_humidity;BME280_pressure;Samples;Min_cycle;Max_cycle;Signal;HPM_P1;HPM_P2
2022/08/09 00:01:21;;;;;;;2.42;1.60;;;;;;;19.37;45.82;99622.91;5160896;28;20084;-81
2022/08/09 00:04:20;;;;;;;4.55;1.23;;;;;;;19.16;46.05;99620.91;5167483;28;20089;-80
2022/08/09 00:07:24;;;;;;;3.17;1.40;;;;;;;18.93;45.76;99601.34;5170527;28;20062;-81
2022/08/09 00:10:18;;;;;;;2.25;1.30;;;;;;;18.80;45.73;99595.75;5172971;28;20546;-81
2022/08/09 00:13:14;;;;;;;2.55;1.88;;;;;;;18.88;46.26;99606.44;5171119;28;20050;-81
2022/08/09 00:16:07;;;;;;;2.40;1.50;;;;;;;18.93;46.06;99606.72;5165604;28;20184;-81
2022/08/09 00:19:02;;;;;;;2.20;1.15;;;;;;;18.70;45.85;99594.13;5167239;28;20117;-81
2022/08/09 00:21:59;;;;;;;4.47;1.20;;;;;;;18.65;46.54;99591.16;5157287;28;20066;-81
2022/08/09 00:24:54;;;;;;;6.35;1.27;;;;;;;18.59;45.93;99591.88;5165429;28;20202;-81
2022/08/09 00:27:45;;;;;;;2.15;1.52;;;;;;;18.35;45.89;99589.41;5182313;28;20050;-79
2022/08/09 00:30:37;;;;;;;2.95;1.40;;;;;;;18.38;46.62;99589.03;5179209;28;20421;-80
2022/08/09 00:33:27;;;;;;;3.60;1.13;;;;;;;18.38;47.41;99600.63;5178675;28;20176;-81
2022/08/09 00:36:38;;;;;;;6.40;1.77;;;;;;;18.59;46.19;99617.91;5180873;28;20030;-79
2022/08/09 00:39:30;;;;;;;7.10;1.55;;;;;;;18.44;46.84;99617.84;5173335;28;20058;-79
2022/08/09 00:42:41;;;;;;;2.60;1.48;;;;;;;18.42;47.29;99595.72;5159541;28;20065;-80
2022/08/09 00:45:51;;;;;;;3.85;1.70;;;;;;;18.67;47.52;99642.00;5169176;28;20097;-80
2022/08/09 00:48:43;;;;;;;3.65;1.40;;;;;;;18.35;48.67;99592.91;5181984;28;20077;-81
2022/08/09 00:51:38;;;;;;;3.50;1.30;;;;;;;18.33;48.56;99623.63;5170246;28;20091;-81
2022/08/09 00:54:47;;;;;;;3.63;1.60;;;;;;;18.47;48.94;99647.00;5171571;28;20101;-80
2022/08/09 00:57:38;;;;;;;2.72;1.30;;;;;;;18.43;49.03;99643.84;5187865;28;20043;-81
2022/08/09 01:00:29;;;;;;;9.77;3.45;;;;;;;17.98;49.62;99632.06;5187987;28;20079;-80
2022/08/09 01:03:27;;;;;;;5.75;1.42;;;;;;;18.11;50.08;99641.38;5173056;28;20568;-80
2022/08/09 01:06:40;;;;;;;3.97;1.80;;;;;;;18.26;49.99;99640.44;5174619;28;20107;-81
2022/08/09 01:09:52;;;;;;;2.03;1.50;;;;;;;17.96;49.27;99638.63;5168431;28;20054;-80
2022/08/09 01:13:09;;;;;;;4.22;1.48;;;;;;;17.80;49.32;99644.88;5182631;28;20134;-81
2022/08/09 01:16:04;;;;;;;2.83;1.35;;;;;;;17.66;50.12;99635.69;5181123;28;20148;-80
2022/08/09 01:19:01;;;;;;;3.08;1.60;;;;;;;17.76;50.72;99638.19;5184918;28;20417;-81
2022/08/09 01:22:16;;;;;;;4.03;1.65;;;;;;;17.95;49.37;99647.69;5189209;28;20070;-81
2022/08/09 01:25:18;;;;;;;2.08;1.45;;;;;;;17.73;49.44;99642.03;5177703;28;20102;-81
2022/08/09 01:28:11;;;;;;;;;;;;;;;17.68;49.33;99651.59;5157256;28;20069;-81
2022/08/09 01:31:03;;;;;;;3.88;1.50;;;;;;;17.89;49.49;99654.56;5159946;28;19966;-81
2022/08/09 01:33:59;;;;;;;4.03;1.55;;;;;;;17.60;49.66;99633.72;5158606;28;20249;-80
2022/08/09 01:36:51;;;;;;;2.22;1.52;;;;;;;17.38;50.84;99640.63;5175340;28;20054;-81
2022/08/09 01:39:45;;;;;;;3.92;1.58;;;;;;;17.57;50.26;99668.91;5158391;28;20508;-80
2022/08/09 01:42:37;;;;;;;4.25;1.67;;;;;;;17.40;50.28;99664.59;5169462;28;20057;-80
2022/08/09 01:45:29;;;;;;;1.97;1.50;;;;;;;16.99;50.75;99641.41;5157773;28;20077;-80
2022/08/09 01:48:21;;;;;;;1.85;1.70;;;;;;;17.21;51.24;99658.59;5164821;28;20293;-79
2022/08/09 01:51:21;;;;;;;3.40;1.50;;;;;;;17.54;50.12;99645.13;5141517;28;20054;-79
2022/08/09 01:54:16;;;;;;;3.58;1.75;;;;;;;17.64;50.71;99672.56;5160508;28;20086;-80
2022/08/09 01:57:12;;;;;;;3.97;2.13;;;;;;;17.52;51.38;99673.97;5159114;28;20137;-81
2022/08/09 02:00:09;;;;;;;3.95;1.75;;;;;;;17.50;51.77;99681.34;5174393;28;20053;-80
2022/08/09 02:03:22;;;;;;;1.92;1.70;;;;;;;17.31;52.06;99667.28;5156848;28;20058;-82
2022/08/09 02:06:15;;;;;;;3.10;1.77;;;;;;;17.50;51.88;99681.34;5166433;28;21390;-82
2022/08/09 02:09:09;;;;;;;2.00;1.70;;;;;;;17.30;51.69;99651.41;5167296;28;20047;-81
2022/08/09 02:12:01;;;;;;;2.07;1.87;;;;;;;17.32;52.30;99678.88;5181658;28;20097;-79
2022/08/09 02:14:53;;;;;;;2.60;1.85;;;;;;;17.65;51.70;99686.81;5170716;28;20074;-81
2022/08/09 02:17:46;;;;;;;5.18;2.10;;;;;;;17.26;53.59;99680.38;5172214;28;20070;-81
2022/08/09 02:21:01;;;;;;;6.32;2.28;;;;;;;17.19;54.01;99689.28;5162633;28;20061;-80
2022/08/09 02:23:54;;;;;;;2.88;1.88;;;;;;;16.78;54.41;99674.03;5165650;28;20061;-81
2022/08/09 02:26:49;;;;;;;3.07;2.20;;;;;;;16.70;54.04;99683.91;5172314;28;20046;-81
2022/08/09 02:29:44;;;;;;;5.07;1.70;;;;;;;17.01;53.87;99682.25;5163392;28;20529;-81
2022/08/09 02:32:43;;;;;;;6.97;2.20;;;;;;;16.92;53.56;99677.91;5162616;28;20061;-79
2022/08/09 02:35:37;;;;;;;3.97;2.40;;;;;;;16.65;55.28;99677.22;5155732;28;20077;-79
2022/08/09 02:38:51;;;;;;;6.30;1.80;;;;;;;16.94;53.84;99675.88;5147783;28;20057;-82
2022/08/09 02:41:48;;;;;;;3.67;2.08;;;;;;;16.98;53.55;99676.38;5162540;28;20746;-82
2022/08/09 02:44:47;;;;;;;3.42;2.15;;;;;;;16.70;54.17;99699.97;5157272;28;20052;-81
2022/08/09 02:47:40;;;;;;;2.05;1.85;;;;;;;16.49;54.37;99682.53;5176845;28;20046;-82
2022/08/09 02:50:53;;;;;;;5.55;2.33;;;;;;;16.73;54.56;99686.25;5161685;28;20050;-81
2022/08/09 02:53:50;;;;;;;5.68;1.80;;;;;;;16.89;53.88;99691.66;5163957;28;20128;-80
2022/08/09 02:56:51;;;;;;;1.80;1.63;;;;;;;16.73;53.47;99689.75;5179749;28;20049;-82
2022/08/09 02:59:47;;;;;;;4.85;2.38;;;;;;;16.58;54.49;99680.69;5168322;28;20042;-80
2022/08/09 03:02:59;;;;;;;3.38;1.80;;;;;;;16.68;53.55;99667.97;5173474;28;20054;-81
2022/08/09 03:05:52;;;;;;;4.55;2.33;;;;;;;16.64;53.52;99675.50;5181162;28;20145;-80
2022/08/09 03:08:47;;;;;;;5.82;2.10;;;;;;;16.51;54.14;99679.69;5176430;28;20058;-80
2022/08/09 03:11:39;;;;;;;2.80;2.15;;;;;;;16.53;54.09;99683.06;5175074;28;20101;-79
2022/08/09 03:14:51;;;;;;;1.85;1.75;;;;;;;16.58;54.32;99689.56;5161505;28;20669;-80
2022/08/09 03:17:42;;;;;;;4.00;1.88;;;;;;;16.05;54.86;99656.00;5175859;28;20077;-80
2022/08/09 03:20:33;;;;;;;4.70;2.20;;;;;;;16.44;54.79;99679.50;5168777;28;20077;-80
2022/08/09 03:23:27;;;;;;;5.60;2.23;;;;;;;16.52;54.55;99689.38;5172565;28;20101;-82
2022/08/09 03:26:19;;;;;;;4.78;2.03;;;;;;;16.56;54.09;99674.69;5175302;28;20555;-80
2022/08/09 03:29:21;;;;;;;5.63;2.40;;;;;;;16.47;55.06;99694.41;5165180;28;20064;-81
2022/08/09 03:32:13;;;;;;;6.93;2.13;;;;;;;16.22;54.80;99664.91;5168853;28;20050;-82
2022/08/09 03:35:04;;;;;;;6.55;2.47;;;;;;;16.26;54.49;99689.50;5159225;28;20050;-80
2022/08/09 03:38:13;;;;;;;8.68;2.40;;;;;;;15.80;55.66;99671.13;5169814;28;20189;-81
2022/08/09 03:41:19;;;;;;;4.38;2.05;;;;;;;16.09;55.22;99673.41;5167757;28;20054;-81
2022/08/09 03:44:21;;;;;;;2.58;2.08;;;;;;;15.96;55.91;99684.56;5168467;28;20063;-81
2022/08/09 03:47:17;;;;;;;6.50;2.60;;;;;;;15.87;56.38;99680.19;5157993;28;20065;-80
2022/08/09 03:50:09;;;;;;;4.65;2.45;;;;;;;16.26;55.95;99695.72;5179145;28;20050;-80
2022/08/09 03:53:02;;;;;;;3.40;2.40;;;;;;;16.17;55.67;99686.81;5162743;28;20061;-80
2022/08/09 03:55:54;;;;;;;5.72;2.40;;;;;;;16.15;56.87;99706.69;5171988;28;20184;-80
2022/08/09 03:58:44;;;;;;;4.03;2.28;;;;;;;16.10;56.30;99680.44;5166934;28;20049;-81
2022/08/09 04:01:37;;;;;;;5.47;2.50;;;;;;;15.94;56.92;99694.59;5166923;28;20058;-80
2022/08/09 04:04:30;;;;;;;6.83;2.83;;;;;;;15.87;57.15;99682.88;5180225;28;20059;-80
2022/08/09 04:07:28;;;;;;;4.40;2.30;;;;;;;16.02;56.75;99698.28;5181946;28;20066;-80
2022/08/09 04:10:39;;;;;;;5.30;2.10;;;;;;;16.04;56.78;99699.81;5164958;28;20043;-82
2022/08/09 04:13:30;;;;;;;2.47;2.20;;;;;;;15.91;56.89;99705.59;5170117;28;20047;-82
2022/08/09 04:16:40;;;;;;;3.45;2.30;;;;;;;15.59;57.58;99705.41;5161382;28;20042;-81
2022/08/09 04:19:31;;;;;;;4.80;2.45;;;;;;;15.62;57.55;99700.56;5171296;28;20630;-81
2022/08/09 04:22:41;;;;;;;4.65;2.55;;;;;;;15.84;57.39;99725.13;5167095;28;20057;-80
2022/08/09 04:25:34;;;;;;;2.95;2.65;;;;;;;15.80;56.93;99711.25;5174154;28;20504;-81
2022/08/09 04:28:25;;;;;;;3.30;2.53;;;;;;;15.71;56.45;99725.56;5171379;28;20077;-80
2022/08/09 04:31:23;;;;;;;2.60;2.40;;;;;;;15.46;57.45;99711.19;5171611;28;20121;-81
2022/08/09 04:34:28;;;;;;;3.70;2.58;;;;;;;15.57;56.66;99737.66;5180050;28;20066;-80
2022/08/09 04:37:21;;;;;;;5.25;2.50;;;;;;;15.60;57.67;99733.84;5168645;28;20057;-80
2022/08/09 04:40:12;;;;;;;4.97;2.45;;;;;;;15.69;58.41;99727.53;5166763;28;20101;-80
2022/08/09 04:43:18;;;;;;;3.70;2.47;;;;;;;15.71;58.03;99736.25;5166119;28;20097;-82
2022/08/09 04:46:10;;;;;;;5.30;2.42;;;;;;;15.91;57.93;99729.69;5162763;28;20046;-81
2022/08/09 04:49:20;;;;;;;4.13;2.55;;;;;;;15.74;58.29;99760.00;5189272;28;20138;-79
2022/08/09 04:52:30;;;;;;;6.25;2.75;;;;;;;15.86;58.70;99747.19;5170487;28;20047;-81
2022/08/09 04:55:21;;;;;;;3.20;2.47;;;;;;;15.88;58.38;99754.06;5176080;28;20153;-80
2022/08/09 04:58:12;;;;;;;4.95;2.80;;;;;;;15.84;58.79;99736.66;5169228;28;20053;-81
2022/08/09 05:01:03;;;;;;;4.43;2.83;;;;;;;16.04;59.13;99768.53;5172706;28;20057;-80
2022/08/09 05:04:05;;;;;;;6.93;3.00;;;;;;;16.17;57.92;99760.88;5184024;28;20770;-79
2022/08/09 05:06:56;;;;;;;11.02;3.50;;;;;;;16.48;58.42;99776.38;5181932;28;20049;-81
2022/08/09 05:09:47;;;;;;;9.85;3.13;;;;;;;16.53;58.47;99763.34;5177950;28;20101;-79
2022/08/09 05:12:40;;;;;;;7.32;3.10;;;;;;;16.27;58.91;99766.94;5165213;28;20497;-81
2022/08/09 05:15:31;;;;;;;8.07;3.40;;;;;;;16.29;59.27;99767.63;5182639;28;20047;-82
2022/08/09 05:18:32;;;;;;;5.97;3.45;;;;;;;16.47;58.95;99761.34;5173133;28;20089;-80
2022/08/09 05:21:31;;;;;;;7.47;2.95;;;;;;;16.63;58.22;99780.13;5175459;28;20058;-79
2022/08/09 05:24:37;;;;;;;16.23;3.90;;;;;;;16.77;58.83;99766.09;5182839;28;20086;-79
2022/08/09 05:27:27;;;;;;;9.40;3.50;;;;;;;16.71;58.80;99766.72;5183043;28;20050;-80
2022/08/09 05:30:20;;;;;;;13.20;3.53;;;;;;;16.70;58.47;99773.09;5185134;28;20063;-79
2022/08/09 05:33:10;;;;;;;10.63;4.53;;;;;;;16.88;59.09;99778.34;5166878;28;20089;-79
2022/08/09 05:36:03;;;;;;;12.68;3.97;;;;;;;17.16;57.42;99786.91;5182982;28;20046;-80
2022/08/09 05:38:56;;;;;;;5.63;3.45;;;;;;;17.09;57.90;99785.91;5171578;28;20065;-80
2022/08/09 05:41:46;;;;;;;6.65;3.30;;;;;;;17.21;57.99;99795.28;5181564;28;20050;-79
2022/08/09 05:44:39;;;;;;;6.70;3.00;;;;;;;17.37;57.36;99797.97;5178576;28;20057;-79
2022/08/09 05:47:32;;;;;;;7.78;3.58;;;;;;;17.44;56.58;99783.91;5151049;28;20058;-81
2022/08/09 05:50:24;;;;;;;6.28;3.22;;;;;;;17.62;56.43;99806.00;5175083;28;20060;-81
2022/08/09 05:53:34;;;;;;;9.43;3.70;;;;;;;17.64;56.67;99801.28;5163878;28;20062;-80
2022/08/09 05:56:44;;;;;;;7.10;3.65;;;;;;;17.79;56.07;99796.13;5174548;28;20058;-79
2022/08/09 05:59:44;;;;;;;6.70;3.55;;;;;;;17.74;55.48;99791.22;5167350;28;20057;-80
2022/08/09 06:02:35;;;;;;;7.72;4.38;;;;;;;18.04;54.99;99810.31;5169024;28;20054;-81
2022/08/09 06:05:33;;;;;;;9.63;4.03;;;;;;;17.97;55.16;99803.94;5164131;28;20062;-81
2022/08/09 06:08:44;;;;;;;5.93;3.63;;;;;;;18.18;53.86;99800.69;5161978;28;20124;-82
2022/08/09 06:11:42;;;;;;;6.75;3.25;;;;;;;18.50;52.39;99813.16;5166588;28;20046;-82
2022/08/09 06:14:46;;;;;;;11.30;4.07;;;;;;;18.40;52.78;99797.25;5165387;28;20192;-79
2022/08/09 06:17:37;;;;;;;4.60;3.53;;;;;;;18.49;51.90;99798.91;5156514;28;20130;-83
2022/08/09 06:20:31;;;;;;;5.50;3.00;;;;;;;18.68;52.56;99821.81;5153714;28;20169;-82
2022/08/09 06:23:22;;;;;;;7.13;3.20;;;;;;;18.81;49.73;99815.03;5160507;28;20144;-81
2022/08/09 06:26:33;;;;;;;3.22;2.67;;;;;;;18.91;48.97;99811.13;5162051;28;20047;-81
2022/08/09 06:29:24;;;;;;;6.43;3.10;;;;;;;19.06;49.64;99819.25;5162588;28;20128;-80
2022/08/09 06:32:16;;;;;;;5.25;2.83;;;;;;;19.10;49.22;99812.50;5166172;28;20676;-81
2022/08/09 06:35:26;;;;;;;5.65;2.60;;;;;;;19.24;50.07;99814.44;5230648;23;20521;-80
2022/08/09 06:38:37;;;;;;;3.75;2.45;;;;;;;19.49;48.14;99835.72;5223807;28;20044;-81
2022/08/09 06:41:32;;;;;;;6.95;2.60;;;;;;;19.57;49.02;99827.59;5226322;28;20422;-80
2022/08/09 06:44:42;;;;;;;16.98;3.92;;;;;;;19.63;48.02;99799.13;5204432;28;20068;-81
2022/08/09 06:47:33;;;;;;;12.57;2.92;;;;;;;19.96;47.93;99813.13;5199687;28;20206;-81
2022/08/09 06:50:30;;;;;;;10.25;2.60;;;;;;;19.91;47.74;99810.16;5181300;28;20136;-81
2022/08/09 06:53:21;;;;;;;11.63;2.65;;;;;;;20.00;47.60;99817.13;5186489;28;20053;-79
2022/08/09 06:56:12;;;;;;;13.98;2.85;;;;;;;20.24;47.44;99825.97;5196682;28;20544;-79
2022/08/09 06:59:03;;;;;;;14.68;2.85;;;;;;;20.55;47.12;99821.22;5194251;28;20272;-80
2022/08/09 07:02:14;;;;;;;11.77;2.60;;;;;;;20.62;45.58;99811.34;5197881;28;20053;-79
2022/08/09 07:05:06;;;;;;;11.00;3.05;;;;;;;20.79;45.47;99824.59;5201747;28;20170;-79
2022/08/09 07:07:56;;;;;;;11.70;2.85;;;;;;;20.96;44.57;99814.41;5193802;28;20042;-80
2022/08/09 07:10:50;;;;;;;10.02;2.55;;;;;;;21.47;44.10;99815.16;5193768;28;20054;-79
2022/08/09 07:13:41;;;;;;;11.10;2.80;;;;;;;21.51;44.45;99812.91;5199930;28;20072;-80
2022/08/09 07:16:51;;;;;;;8.88;3.15;;;;;;;21.80;43.34;99820.81;5214263;28;20049;-80
2022/08/09 07:19:49;;;;;;;10.23;2.65;;;;;;;21.71;43.79;99830.09;5193461;28;20060;-80
2022/08/09 07:22:45;;;;;;;7.13;2.55;;;;;;;22.20;42.96;99836.50;5196777;28;20621;-80
2022/08/09 07:25:43;;;;;;;6.43;2.25;;;;;;;21.96;43.00;99840.47;5199029;28;20057;-80
2022/08/09 07:28:33;;;;;;;7.97;2.50;;;;;;;22.38;42.93;99841.38;5217207;28;20041;-81
2022/08/09 07:31:25;;;;;;;8.25;2.22;;;;;;;22.77;41.83;99834.47;5195297;28;20057;-80
2022/08/09 07:34:18;;;;;;;10.77;2.38;;;;;;;23.43;41.55;99832.78;5208140;28;20057;-81
2022/08/09 07:37:10;;;;;;;7.65;2.15;;;;;;;24.90;39.71;99835.22;5206465;28;20052;-81
2022/08/09 07:40:05;;;;;;;12.63;2.45;;;;;;;25.99;35.53;99837.63;5207650;28;20462;-80
2022/08/09 07:42:59;;;;;;;8.82;2.10;;;;;;;27.12;35.11;99847.19;5210107;28;20067;-80
2022/08/09 07:45:50;;;;;;;3.58;2.03;;;;;;;27.16;33.97;99839.41;5209437;28;20076;-80
2022/08/09 07:48:40;;;;;;;11.52;2.30;;;;;;;27.76;32.51;99827.56;5210108;28;20136;-80
2022/08/09 07:51:33;;;;;;;4.57;2.00;;;;;;;28.07;32.65;99842.75;5191414;28;20069;-80
2022/08/09 07:54:43;;;;;;;13.05;2.60;;;;;;;28.33;32.33;99836.81;5201085;28;20069;-80
2022/08/09 07:57:40;;;;;;;8.10;1.98;;;;;;;28.65;31.61;99844.63;5210718;28;20041;-80
2022/08/09 08:00:36;;;;;;;7.80;2.60;;;;;;;28.30;31.98;99837.28;5198056;28;20049;-80
2022/08/09 08:03:45;;;;;;;8.63;2.60;;;;;;;29.88;30.03;99844.13;5195750;28;20435;-81
2022/08/09 08:06:38;;;;;;;20.25;2.13;;;;;;;29.32;30.06;99822.16;5203773;28;20041;-81
2022/08/09 08:09:48;;;;;;;11.15;2.65;;;;;;;30.26;29.26;99840.59;5204105;28;20143;-81
2022/08/09 08:12:58;;;;;;;16.73;2.40;;;;;;;30.03;28.51;99846.25;5204742;28;20597;-80
2022/08/09 08:15:50;;;;;;;6.97;2.08;;;;;;;31.23;28.57;99847.28;5201034;28;20048;-81
2022/08/09 08:18:40;;;;;;;8.48;1.83;;;;;;;30.23;29.06;99843.84;5202234;28;20095;-82
2022/08/09 08:21:32;;;;;;;6.03;1.92;;;;;;;31.95;27.25;99829.53;5206019;28;20179;-81
2022/08/09 08:24:30;;;;;;;9.93;1.70;;;;;;;31.18;27.82;99840.91;5207132;28;20049;-81
2022/08/09 08:27:30;;;;;;;12.07;2.10;;;;;;;32.64;26.71;99834.03;5222923;28;20625;-81
2022/08/09 08:30:30;;;;;;;3.38;1.73;;;;;;;33.17;25.51;99840.25;5206123;28;20140;-82
2022/08/09 08:33:21;;;;;;;5.70;1.60;;;;;;;33.30;25.75;99830.66;5228437;28;20262;-82
2022/08/09 08:36:13;;;;;;;2.03;1.65;;;;;;;33.27;25.25;99835.88;5225803;28;20053;-82
2022/08/09 08:39:17;;;;;;;;;;;;;;;33.60;24.67;99837.28;5212602;28;20465;-82
2022/08/09 08:42:08;;;;;;;2.33;1.50;;;;;;;33.90;25.17;99823.50;5212789;28;19944;-81
2022/08/09 08:45:00;;;;;;;4.88;1.60;;;;;;;34.30;24.76;99823.72;5202701;28;20107;-79
2022/08/09 08:48:04;;;;;;;3.30;1.48;;;;;;;34.78;24.09;99833.19;5213841;28;20049;-79
2022/08/09 08:50:56;;;;;;;1.63;1.48;;;;;;;34.79;24.23;99829.31;5216528;28;20128;-79
2022/08/09 08:53:48;;;;;;;1.63;1.52;;;;;;;34.84;23.49;99832.06;5198190;28;20053;-79
2022/08/09 08:56:54;;;;;;;5.05;1.50;;;;;;;34.40;23.33;99823.69;5212311;28;20064;-79
2022/08/09 08:59:47;;;;;;;4.65;1.80;;;;;;;34.47;23.40;99826.13;5209865;28;20053;-80
2022/08/09 09:02:44;;;;;;;3.72;1.75;;;;;;;34.55;23.62;99834.66;5208066;28;20072;-79
2022/08/09 09:05:44;;;;;;;1.50;1.40;;;;;;;34.57;25.15;99831.63;5209342;28;20045;-80
2022/08/09 09:08:53;;;;;;;6.63;1.63;;;;;;;35.25;23.21;99825.47;5210861;28;20041;-80
2022/08/09 09:11:50;;;;;;;5.75;1.60;;;;;;;35.37;23.26;99828.72;5197539;28;20060;-79
2022/08/09 09:14:43;;;;;;;4.22;1.55;;;;;;;34.99;24.06;99828.38;5212079;28;20105;-79
2022/08/09 09:17:36;;;;;;;1.77;1.48;;;;;;;35.45;22.51;99819.81;5208247;28;20080;-79
2022/08/09 09:20:43;;;;;;;2.13;1.50;;;;;;;35.70;22.72;99801.44;5200682;28;20136;-79
2022/08/09 09:23:42;;;;;;;2.80;1.58;;;;;;;35.86;21.71;99824.16;5211021;28;20510;-80
2022/08/09 09:26:58;;;;;;;4.33;1.20;;;;;;;35.37;21.58;99811.34;5213751;28;20491;-80
2022/08/09 09:29:48;;;;;;;4.90;1.50;;;;;;;35.65;22.52;99813.31;5205988;28;20789;-80
2022/08/09 09:33:10;;;;;;;3.25;1.60;;;;;;;35.78;21.12;99803.53;5211392;28;20053;-80
2022/08/09 09:36:08;;;;;;;1.80;1.50;;;;;;;35.79;22.41;99805.19;5224070;28;20136;-80
2022/08/09 09:39:10;;;;;;;6.82;1.73;;;;;;;35.33;21.61;99799.22;5225272;28;20071;-79
2022/08/09 09:42:04;;;;;;;1.63;1.35;;;;;;;36.14;21.19;99797.69;5200740;28;20076;-80
2022/08/09 09:45:02;;;;;;;3.15;1.30;;;;;;;35.96;20.10;99801.97;5207189;28;20057;-80
2022/08/09 09:47:52;;;;;;;4.72;1.42;;;;;;;34.51;20.69;99810.72;5205948;28;20065;-79
2022/08/09 09:50:53;;;;;;;1.83;1.60;;;;;;;35.01;21.05;99806.06;5222525;28;20511;-79
2022/08/09 09:53:44;;;;;;;3.00;1.50;;;;;;;35.91;20.33;99794.56;5213746;28;20077;-79
2022/08/09 09:56:53;;;;;;;3.67;1.50;;;;;;;34.87;20.78;99803.13;5207478;28;20131;-79
2022/08/09 10:00:21;;;;;;;14.23;1.85;;;;;;;34.69;21.75;99799.06;5199983;28;20045;-79
2022/08/09 10:03:15;;;;;;;5.28;1.40;;;;;;;35.16;21.41;99811.47;5205098;28;20053;-79
2022/08/09 10:06:05;;;;;;;3.55;1.45;;;;;;;35.38;21.18;99786.22;5212198;28;20053;-79
2022/08/09 10:09:03;;;;;;;5.57;1.50;;;;;;;32.97;22.05;99797.09;5209711;28;20045;-79
2022/08/09 10:12:26;;;;;;;1.55;1.42;;;;;;;33.55;22.98;99769.41;5213841;28;20626;-79
2022/08/09 10:15:18;;;;;;;2.05;1.42;;;;;;;34.83;22.29;99794.56;5199095;28;20052;-79
2022/08/09 10:18:29;;;;;;;1.95;1.40;;;;;;;34.28;22.42;99790.16;5211358;28;20059;-80
2022/08/09 10:21:21;;;;;;;5.03;1.40;;;;;;;33.61;23.09;99795.78;5206729;28;20103;-80
2022/08/09 10:24:14;;;;;;;2.45;1.40;;;;;;;35.09;22.54;99790.88;5188423;28;20084;-82
2022/08/09 10:27:25;;;;;;;3.72;1.60;;;;;;;33.62;23.51;99783.69;5212330;28;20053;-82
2022/08/09 10:30:27;;;;;;;2.63;1.30;;;;;;;34.25;23.34;99793.47;5213251;28;20088;-83
2022/08/09 10:33:38;;;;;;;4.20;1.55;;;;;;;33.82;21.39;99768.25;5196454;28;20120;-82
2022/08/09 10:36:53;;;;;;;3.67;1.45;;;;;;;33.45;21.57;99759.19;5200357;28;20045;-80
2022/08/09 10:39:44;;;;;;;5.57;1.40;;;;;;;34.43;22.11;99768.03;5210280;28;20057;-80
2022/08/09 10:42:38;;;;;;;4.32;1.40;;;;;;;33.52;21.25;99783.69;5215539;28;20049;-81
2022/08/09 10:45:35;;;;;;;1.40;1.30;;;;;;;33.30;22.18;99747.38;5201416;28;20099;-78
2022/08/09 10:48:50;;;;;;;1.42;1.30;;;;;;;34.68;22.67;99755.31;5202117;28;20175;-79
2022/08/09 10:52:14;;;;;;;3.70;1.52;;;;;;;33.99;23.18;99760.50;5223126;28;20495;-79
2022/08/09 10:55:21;;;;;;;2.45;1.30;;;;;;;33.39;22.53;99751.22;5214096;28;20072;-78
2022/08/09 10:58:32;;;;;;;4.72;1.63;;;;;;;34.09;22.29;99748.66;5209209;28;20649;-79
2022/08/09 11:01:32;;;;;;;10.35;1.60;;;;;;;34.03;22.76;99760.78;5203472;28;20065;-80
2022/08/09 11:05:02;;;;;;;5.57;1.85;;;;;;;34.47;22.28;99755.38;5191763;28;20403;-78
2022/08/09 11:07:53;;;;;;;4.10;1.20;;;;;;;33.86;21.57;99761.09;5201762;28;20049;-79
2022/08/09 11:10:48;;;;;;;1.98;1.30;;;;;;;33.18;22.23;99772.41;5201901;28;20103;-80
2022/08/09 11:13:46;;;;;;;6.80;1.50;;;;;;;34.20;22.66;99758.50;5193424;28;20155;-80
2022/08/09 11:16:43;;;;;;;1.48;1.20;;;;;;;34.31;20.67;99764.81;5196557;28;20120;-80
2022/08/09 11:20:08;;;;;;;4.03;1.77;;;;;;;33.06;21.07;99752.59;5203338;28;20050;-80
2022/08/09 11:23:14;;;;;;;1.67;1.30;;;;;;;33.13;22.94;99753.16;5200878;28;20080;-79
2022/08/09 11:26:05;;;;;;;;;;;;;;;32.99;22.04;99763.88;5204159;28;20311;-80
2022/08/09 11:28:56;;;;;;;5.47;1.45;;;;;;;32.91;21.54;99758.84;5194610;28;19940;-80
2022/08/09 11:31:47;;;;;;;2.38;1.40;;;;;;;33.37;22.06;99748.75;5186758;28;20075;-80
2022/08/09 11:34:47;;;;;;;2.43;1.33;;;;;;;33.42;21.85;99732.25;5206539;28;20059;-80
2022/08/09 11:37:42;;;;;;;2.92;1.30;;;;;;;32.93;21.53;99742.94;5206462;28;20137;-79
2022/08/09 11:40:39;;;;;;;2.38;1.30;;;;;;;33.41;22.48;99749.88;5199450;28;20459;-79
2022/08/09 11:43:32;;;;;;;;;;;;;;;33.80;21.98;99743.75;5195095;28;20200;-79
2022/08/09 11:46:23;;;;;;;3.58;1.40;;;;;;;34.21;21.95;99726.34;5202675;28;19925;-79
2022/08/09 11:49:57;;;;;;;3.10;1.60;;;;;;;33.51;21.39;99754.56;5202609;28;20731;-79
2022/08/09 11:53:08;;;;;;;1.67;1.40;;;;;;;33.74;21.89;99741.28;5203198;28;20132;-79
2022/08/09 11:56:25;;;;;;;2.35;1.38;;;;;;;33.58;21.86;99735.84;5200231;28;20516;-79
2022/08/09 11:59:36;;;;;;;4.72;1.50;;;;;;;33.37;20.83;99726.75;5203068;28;20054;-79
2022/08/09 12:02:27;;;;;;;2.03;1.35;;;;;;;33.56;21.42;99716.03;5190696;28;20419;-79
2022/08/09 12:05:38;;;;;;;1.77;1.40;;;;;;;33.19;20.37;99711.66;5214870;28;20049;-79
2022/08/09 12:08:36;;;;;;;1.55;1.20;;;;;;;32.20;22.50;99716.38;5202187;28;20270;-80
2022/08/09 12:11:27;;;;;;;4.78;1.40;;;;;;;32.27;22.13;99708.72;5202819;28;20118;-79
2022/08/09 12:14:18;;;;;;;5.13;1.60;;;;;;;32.66;21.94;99716.53;5214049;28;20053;-78
2022/08/09 12:17:26;;;;;;;5.28;1.27;;;;;;;32.81;21.52;99712.16;5203693;28;20057;-79
2022/08/09 12:20:33;;;;;;;8.35;1.25;;;;;;;32.98;21.48;99710.00;5203357;28;20438;-79
2022/08/09 12:23:24;;;;;;;4.00;1.10;;;;;;;33.26;21.17;99700.38;5198388;28;20132;-79
2022/08/09 12:26:38;;;;;;;1.98;1.20;;;;;;;32.78;21.94;99710.78;5198544;28;20656;-80
2022/08/09 12:29:30;;;;;;;3.25;1.25;;;;;;;32.94;21.28;99708.88;5189802;28;20156;-79
2022/08/09 12:32:43;;;;;;;1.48;1.20;;;;;;;32.41;21.34;99716.44;5202481;28;20057;-79
2022/08/09 12:35:35;;;;;;;2.70;1.52;;;;;;;32.52;20.91;99723.66;5199849;23;20056;-71
2022/08/09 12:38:32;;;;;;;6.38;1.50;;;;;;;32.56;20.89;99715.69;5202044;28;20045;-68
2022/08/09 12:41:31;;;;;;;6.57;1.50;;;;;;;32.73;21.13;99699.81;5187030;28;20486;-68
2022/08/09 12:44:28;;;;;;;4.03;1.40;;;;;;;32.51;21.80;99711.00;5188887;28;20537;-68
2022/08/09 12:47:28;;;;;;;3.30;1.60;;;;;;;32.34;21.39;99707.66;5179401;28;20056;-68
2022/08/09 12:50:33;;;;;;;3.15;1.50;;;;;;;32.37;21.05;99702.44;5185237;28;20057;-69
2022/08/09 12:53:34;;;;;;;3.45;1.33;;;;;;;31.96;21.04;99694.06;5181901;28;20064;-70
2022/08/09 12:56:30;;;;;;;3.85;1.30;;;;;;;31.63;22.09;99700.72;5184017;28;20057;-71
2022/08/09 12:59:37;;;;;;;2.35;1.30;;;;;;;31.52;21.66;99699.84;5190801;28;20140;-70
2022/08/09 13:02:51;;;;;;;6.50;1.30;;;;;;;32.03;21.14;99693.81;5180438;28;20093;-70
2022/08/09 13:05:46;;;;;;;3.72;1.13;;;;;;;32.80;20.49;99689.38;5184649;28;20046;-73
2022/08/09 13:08:59;;;;;;;32.72;2.15;;;;;;;32.23;21.14;99696.63;5174300;28;20061;-69
2022/08/09 13:11:52;;;;;;;34.72;1.70;;;;;;;31.80;21.41;99689.56;5178383;28;20057;-68
2022/08/09 13:14:51;;;;;;;17.63;2.00;;;;;;;31.84;21.52;99685.19;5181394;28;20058;-67
2022/08/09 13:17:44;;;;;;;1.23;1.10;;;;;;;31.65;21.83;99684.81;5181293;28;20570;-68
2022/08/09 13:20:57;;;;;;;8.60;1.10;;;;;;;31.76;21.87;99680.25;5180099;28;20056;-68
2022/08/09 13:24:09;;;;;;;3.30;1.08;;;;;;;31.30;21.82;99661.56;5181022;28;20049;-68
2022/08/09 13:27:28;;;;;;;5.35;1.70;;;;;;;32.04;21.81;99671.59;5181684;28;20057;-68
2022/08/09 13:30:18;;;;;;;2.63;1.20;;;;;;;32.02;21.86;99675.69;5183718;28;20418;-68
2022/08/09 13:33:29;;;;;;;2.70;1.20;;;;;;;31.99;21.44;99674.34;5183390;28;20139;-68
2022/08/09 13:36:39;;;;;;;1.80;1.02;;;;;;;32.27;21.32;99666.72;5182428;28;20188;-68
2022/08/09 13:39:35;;;;;;;1.65;1.10;;;;;;;32.13;21.07;99651.88;5182635;28;20125;-71
2022/08/09 13:42:45;;;;;;;2.85;0.82;;;;;;;32.21;21.22;99667.81;5180546;28;20056;-69
2022/08/09 13:45:36;;;;;;;4.50;1.23;;;;;;;31.66;21.66;99659.06;5184355;28;20123;-69
2022/08/09 13:48:46;;;;;;;3.00;1.10;;;;;;;32.07;21.71;99659.28;5182763;28;20046;-69
2022/08/09 13:51:37;;;;;;;1.73;1.27;;;;;;;32.16;20.74;99657.66;5183665;28;20049;-69
2022/08/09 13:54:27;;;;;;;3.38;1.23;;;;;;;31.76;20.69;99645.41;5184877;28;20115;-70
2022/08/09 13:57:19;;;;;;;11.05;1.42;;;;;;;31.55;21.87;99660.09;5188446;28;20503;-67
2022/08/09 14:00:28;;;;;;;2.78;1.15;;;;;;;31.64;21.73;99660.44;5186643;28;20189;-68
2022/08/09 14:03:20;;;;;;;2.45;1.25;;;;;;;31.66;21.60;99650.84;5187598;28;20064;-68